sensor_id;sensor_type;location;lat;lon;timestamp;temperature;humidity
2054;DHT22;1032;52.542;13.440;2022-10-31T00:00:52;13.80;99.90
2054;DHT22;1032;52.542;13.440;2022-10-31T00:03:19;13.60;99.90
2054;DHT22;1032;52.542;13.440;2022-10-31T00:05:47;13.70;99.90
2054;DHT22;1032;52.542;13.440;2022-10-31T00:08:14;13.70;99.90
2054;DHT22;1032;52.542;13.440;2022-10-31T00:10:41;13.70;99.90
2054;DHT22;1032;52.542;13.440;2022-10-31T00:13:09;13.80;99.90
2054;DHT22;1032;52.542;13.440;2022-10-31T00:15:38;13.70;99.90
2054;DHT22;1032;52.542;13.440;2022-10-31T00:18:05;13.40;99.90
2054;DHT22;1032;52.542;13.440;2022-10-31T00:25:00;13.80;99.90
2054;DHT22;1032;52.542;13.440;2022-10-31T00:27:27;13.70;99.90
2054;DHT22;1032;52.542;13.440;2022-10-31T00:29:55;13.50;99.90
2054;DHT22;1032;52.542;13.440;2022-10-31T00:32:22;13.60;99.90
2054;DHT22;1032;52.542;13.440;2022-10-31T00:34:48;13.70;99.90
2054;DHT22;1032;52.542;13.440;2022-10-31T00:37:15;14.10;99.90
2054;DHT22;1032;52.542;13.440;2022-10-31T00:39:43;13.40;99.90
2054;DHT22;1032;52.542;13.440;2022-10-31T00:42:10;13.80;99.90
2054;DHT22;1032;52.542;13.440;2022-10-31T00:44:37;13.60;99.90
2054;DHT22;1032;52.542;13.440;2022-10-31T00:47:05;13.90;99.90
2054;DHT22;1032;52.542;13.440;2022-10-31T00:49:31;13.60;99.90
2054;DHT22;1032;52.542;13.440;2022-10-31T00:51:58;13.20;99.90
2054;DHT22;1032;52.542;13.440;2022-10-31T00:54:25;13.60;99.90
2054;DHT22;1032;52.542;13.440;2022-10-31T00:56:51;13.80;99.90
2054;DHT22;1032;52.542;13.440;2022-10-31T00:59:18;13.70;99.90
2054;DHT22;1032;52.542;13.440;2022-10-31T01:01:44;13.40;99.90
2054;DHT22;1032;52.542;13.440;2022-10-31T01:04:12;13.60;99.90
2054;DHT22;1032;52.542;13.440;2022-10-31T01:06:39;13.50;99.90
2054;DHT22;1032;52.542;13.440;2022-10-31T01:09:05;13.80;99.90
2054;DHT22;1032;52.542;13.440;2022-10-31T01:11:32;13.70;99.90
2054;DHT22;1032;52.542;13.440;2022-10-31T01:13:59;13.70;99.90
2054;DHT22;1032;52.542;13.440;2022-10-31T01:16:26;13.40;99.90
2054;DHT22;1032;52.542;13.440;2022-10-31T01:18:55;13.70;99.90
2054;DHT22;1032;52.542;13.440;2022-10-31T01:21:24;13.50;99.90
2054;DHT22;1032;52.542;13.440;2022-10-31T01:23:54;13.30;99.90
2054;DHT22;1032;52.542;13.440;2022-10-31T01:26:22;14.00;99.90
2054;DHT22;1032;52.542;13.440;2022-10-31T01:28:50;13.50;99.90
2054;DHT22;1032;52.542;13.440;2022-10-31T01:31:18;13.50;99.90
2054;DHT22;1032;52.542;13.440;2022-10-31T01:33:45;12.80;99.90
2054;DHT22;1032;52.542;13.440;2022-10-31T01:36:14;13.70;99.90
2054;DHT22;1032;52.542;13.440;2022-10-31T01:38:43;13.70;99.90
2054;DHT22;1032;52.542;13.440;2022-10-31T01:41:11;13.40;99.90
2054;DHT22;1032;52.542;13.440;2022-10-31T01:43:43;13.80;99.90
2054;DHT22;1032;52.542;13.440;2022-10-31T01:46:10;13.50;99.90
2054;DHT22;1032;52.542;13.440;2022-10-31T01:48:38;13.50;99.90
2054;DHT22;1032;52.542;13.440;2022-10-31T01:51:06;13.30;99.90
2054;DHT22;1032;52.542;13.440;2022-10-31T01:53:35;13.60;99.90
2054;DHT22;1032;52.542;13.440;2022-10-31T01:56:04;13.40;99.90
2054;DHT22;1032;52.542;13.440;2022-10-31T01:58:31;13.50;99.90
2054;DHT22;1032;52.542;13.440;2022-10-31T02:00:59;13.40;99.90
2054;DHT22;1032;52.542;13.440;2022-10-31T02:03:26;13.20;99.90
2054;DHT22;1032;52.542;13.440;2022-10-31T02:05:56;13.20;99.90
2054;DHT22;1032;52.542;13.440;2022-10-31T02:08:27;13.10;99.90
2054;DHT22;1032;52.542;13.440;2022-10-31T02:10:55;13.30;99.90
2054;DHT22;1032;52.542;13.440;2022-10-31T02:13:25;12.80;99.90
2054;DHT22;1032;52.542;13.440;2022-10-31T02:15:53;13.10;99.90
2054;DHT22;1032;52.542;13.440;2022-10-31T02:18:21;12.90;99.90
2054;DHT22;1032;52.542;13.440;2022-10-31T02:21:00;13.40;99.90
2054;DHT22;1032;52.542;13.440;2022-10-31T02:24:00;13.30;99.90
2054;DHT22;1032;52.542;13.440;2022-10-31T02:26:58;13.50;99.90
2054;DHT22;1032;52.542;13.440;2022-10-31T02:29:55;13.50;99.90
2054;DHT22;1032;52.542;13.440;2022-10-31T02:32:31;13.30;99.90
2054;DHT22;1032;52.542;13.440;2022-10-31T02:35:09;13.00;99.90
2054;DHT22;1032;52.542;13.440;2022-10-31T02:37:38;13.20;99.90
2054;DHT22;1032;52.542;13.440;2022-10-31T02:40:15;13.00;99.90
2054;DHT22;1032;52.542;13.440;2022-10-31T02:43:08;13.20;99.90
2054;DHT22;1032;52.542;13.440;2022-10-31T02:45:43;13.40;99.90
2054;DHT22;1032;52.542;13.440;2022-10-31T02:48:19;13.60;99.90
2054;DHT22;1032;52.542;13.440;2022-10-31T02:50:51;12.80;99.90
2054;DHT22;1032;52.542;13.440;2022-10-31T02:53:18;13.10;99.90
2054;DHT22;1032;52.542;13.440;2022-10-31T02:55:58;13.20;99.90
2054;DHT22;1032;52.542;13.440;2022-10-31T02:58:29;13.20;99.90
2054;DHT22;1032;52.542;13.440;2022-10-31T03:01:15;12.70;99.90
2054;DHT22;1032;52.542;13.440;2022-10-31T03:03:58;13.00;99.90
2054;DHT22;1032;52.542;13.440;2022-10-31T03:06:31;12.50;99.90
2054;DHT22;1032;52.542;13.440;2022-10-31T03:09:03;12.70;99.90
2054;DHT22;1032;52.542;13.440;2022-10-31T03:11:44;12.90;99.90
2054;DHT22;1032;52.542;13.440;2022-10-31T03:14:18;12.90;99.90
2054;DHT22;1032;52.542;13.440;2022-10-31T03:16:54;12.80;99.90
2054;DHT22;1032;52.542;13.440;2022-10-31T03:19:28;12.80;99.90
2054;DHT22;1032;52.542;13.440;2022-10-31T03:21:58;12.70;99.90
2054;DHT22;1032;52.542;13.440;2022-10-31T03:24:29;13.20;99.90
2054;DHT22;1032;52.542;13.440;2022-10-31T03:26:59;13.40;99.90
2054;DHT22;1032;52.542;13.440;2022-10-31T03:29:32;13.60;99.90
2054;DHT22;1032;52.542;13.440;2022-10-31T03:32:03;13.20;99.90
2054;DHT22;1032;52.542;13.440;2022-10-31T03:34:35;12.50;99.90
2054;DHT22;1032;52.542;13.440;2022-10-31T03:37:04;12.90;99.90
2054;DHT22;1032;52.542;13.440;2022-10-31T03:39:33;12.90;99.90
2054;DHT22;1032;52.542;13.440;2022-10-31T03:42:05;13.50;99.90
2054;DHT22;1032;52.542;13.440;2022-10-31T03:44:33;13.30;99.90
2054;DHT22;1032;52.542;13.440;2022-10-31T03:47:03;13.10;99.90
2054;DHT22;1032;52.542;13.440;2022-10-31T03:49:30;13.00;99.90
2054;DHT22;1032;52.542;13.440;2022-10-31T03:52:02;13.10;99.90
2054;DHT22;1032;52.542;13.440;2022-10-31T03:54:37;13.10;99.90
2054;DHT22;1032;52.542;13.440;2022-10-31T03:57:07;13.40;99.90
2054;DHT22;1032;52.542;13.440;2022-10-31T03:59:39;13.30;99.90
2054;DHT22;1032;52.542;13.440;2022-10-31T04:02:15;12.70;99.90
2054;DHT22;1032;52.542;13.440;2022-10-31T04:04:44;13.10;99.90
2054;DHT22;1032;52.542;13.440;2022-10-31T04:07:13;13.20;99.90
2054;DHT22;1032;52.542;13.440;2022-10-31T04:09:43;13.30;99.90
2054;DHT22;1032;52.542;13.440;2022-10-31T04:12:14;13.40;99.90
2054;DHT22;1032;52.542;13.440;2022-10-31T04:15:01;13.30;99.90
2054;DHT22;1032;52.542;13.440;2022-10-31T04:17:32;12.70;99.90
2054;DHT22;1032;52.542;13.440;2022-10-31T04:19:59;13.10;99.90
2054;DHT22;1032;52.542;13.440;2022-10-31T04:22:28;13.00;99.90
2054;DHT22;1032;52.542;13.440;2022-10-31T04:24:55;13.30;99.90
2054;DHT22;1032;52.542;13.440;2022-10-31T04:27:22;13.30;99.90
2054;DHT22;1032;52.542;13.440;2022-10-31T04:29:48;13.10;99.90
2054;DHT22;1032;52.542;13.440;2022-10-31T04:32:15;13.10;99.90
2054;DHT22;1032;52.542;13.440;2022-10-31T04:34:42;13.30;99.90
2054;DHT22;1032;52.542;13.440;2022-10-31T04:37:10;12.80;99.90
2054;DHT22;1032;52.542;13.440;2022-10-31T04:39:37;13.60;99.90
2054;DHT22;1032;52.542;13.440;2022-10-31T04:42:22;13.20;99.90
2054;DHT22;1032;52.542;13.440;2022-10-31T04:44:49;13.40;99.90
2054;DHT22;1032;52.542;13.440;2022-10-31T04:47:16;13.10;99.90
2054;DHT22;1032;52.542;13.440;2022-10-31T04:49:43;13.40;99.90
2054;DHT22;1032;52.542;13.440;2022-10-31T04:52:11;13.10;99.90
2054;DHT22;1032;52.542;13.440;2022-10-31T04:54:39;13.30;99.90
2054;DHT22;1032;52.542;13.440;2022-10-31T04:57:32;13.00;99.90
2054;DHT22;1032;52.542;13.440;2022-10-31T05:00:01;13.70;99.90
2054;DHT22;1032;52.542;13.440;2022-10-31T05:02:28;13.40;99.90
2054;DHT22;1032;52.542;13.440;2022-10-31T05:04:56;13.10;99.90
2054;DHT22;1032;52.542;13.440;2022-10-31T05:07:23;13.50;99.90
2054;DHT22;1032;52.542;13.440;2022-10-31T05:09:51;13.30;99.90
2054;DHT22;1032;52.542;13.440;2022-10-31T05:12:18;12.60;99.90
2054;DHT22;1032;52.542;13.440;2022-10-31T05:15:05;13.30;99.90
2054;DHT22;1032;52.542;13.440;2022-10-31T05:17:52;13.20;99.90
2054;DHT22;1032;52.542;13.440;2022-10-31T05:20:37;13.10;99.90
2054;DHT22;1032;52.542;13.440;2022-10-31T05:23:11;13.70;99.90
2054;DHT22;1032;52.542;13.440;2022-10-31T05:25:41;13.20;99.90
2054;DHT22;1032;52.542;13.440;2022-10-31T05:28:08;13.20;99.90
2054;DHT22;1032;52.542;13.440;2022-10-31T05:30:34;13.40;99.90
2054;DHT22;1032;52.542;13.440;2022-10-31T05:33:03;13.50;99.90
2054;DHT22;1032;52.542;13.440;2022-10-31T05:35:48;12.80;99.90
2054;DHT22;1032;52.542;13.440;2022-10-31T05:38:30;13.20;99.90
2054;DHT22;1032;52.542;13.440;2022-10-31T05:41:05;13.30;99.90
2054;DHT22;1032;52.542;13.440;2022-10-31T05:43:33;12.90;99.90
2054;DHT22;1032;52.542;13.440;2022-10-31T05:46:02;13.40;99.90
2054;DHT22;1032;52.542;13.440;2022-10-31T05:48:51;13.20;99.90
2054;DHT22;1032;52.542;13.440;2022-10-31T05:51:57;13.50;99.90
2054;DHT22;1032;52.542;13.440;2022-10-31T05:54:32;13.40;99.90
2054;DHT22;1032;52.542;13.440;2022-10-31T05:57:00;13.20;99.90
2054;DHT22;1032;52.542;13.440;2022-10-31T05:59:27;13.40;99.90
2054;DHT22;1032;52.542;13.440;2022-10-31T06:01:54;13.10;99.90
2054;DHT22;1032;52.542;13.440;2022-10-31T06:04:43;13.50;99.90
2054;DHT22;1032;52.542;13.440;2022-10-31T06:07:10;13.40;99.90
2054;DHT22;1032;52.542;13.440;2022-10-31T06:09:37;13.50;99.90
2054;DHT22;1032;52.542;13.440;2022-10-31T06:12:06;13.30;99.90
2054;DHT22;1032;52.542;13.440;2022-10-31T06:14:53;13.30;99.90
2054;DHT22;1032;52.542;13.440;2022-10-31T06:17:20;13.50;99.90
2054;DHT22;1032;52.542;13.440;2022-10-31T06:19:46;13.50;99.90
2054;DHT22;1032;52.542;13.440;2022-10-31T06:22:19;13.30;99.90
2054;DHT22;1032;52.542;13.440;2022-10-31T06:24:45;13.70;99.90
2054;DHT22;1032;52.542;13.440;2022-10-31T06:27:28;13.40;99.90
2054;DHT22;1032;52.542;13.440;2022-10-31T06:29:57;13.50;99.90
2054;DHT22;1032;52.542;13.440;2022-10-31T06:32:29;13.40;99.90
2054;DHT22;1032;52.542;13.440;2022-10-31T06:34:57;13.10;99.90
2054;DHT22;1032;52.542;13.440;2022-10-31T06:37:24;13.00;99.90
2054;DHT22;1032;52.542;13.440;2022-10-31T06:39:52;13.40;99.90
2054;DHT22;1032;52.542;13.440;2022-10-31T06:42:19;13.60;99.90
2054;DHT22;1032;52.542;13.440;2022-10-31T06:44:48;13.80;99.90
2054;DHT22;1032;52.542;13.440;2022-10-31T06:47:41;13.50;99.90
2054;DHT22;1032;52.542;13.440;2022-10-31T06:50:11;13.10;99.90
2054;DHT22;1032;52.542;13.440;2022-10-31T06:52:37;13.90;99.90
2054;DHT22;1032;52.542;13.440;2022-10-31T06:55:05;14.10;99.90
2054;DHT22;1032;52.542;13.440;2022-10-31T06:57:33;13.60;99.90
2054;DHT22;1032;52.542;13.440;2022-10-31T07:00:01;13.50;99.90
2054;DHT22;1032;52.542;13.440;2022-10-31T07:02:38;13.90;99.90
2054;DHT22;1032;52.542;13.440;2022-10-31T07:05:05;13.70;99.90
2054;DHT22;1032;52.542;13.440;2022-10-31T07:07:32;14.00;99.90
2054;DHT22;1032;52.542;13.440;2022-10-31T07:09:59;13.50;99.90
2054;DHT22;1032;52.542;13.440;2022-10-31T07:12:41;13.90;99.90
2054;DHT22;1032;52.542;13.440;2022-10-31T07:15:10;13.90;99.90
2054;DHT22;1032;52.542;13.440;2022-10-31T07:17:36;14.40;99.90
2054;DHT22;1032;52.542;13.440;2022-10-31T07:20:04;14.20;99.90
2054;DHT22;1032;52.542;13.440;2022-10-31T07:22:34;14.40;99.90
2054;DHT22;1032;52.542;13.440;2022-10-31T07:25:04;14.30;99.90
2054;DHT22;1032;52.542;13.440;2022-10-31T07:27:49;14.40;99.90
2054;DHT22;1032;52.542;13.440;2022-10-31T07:30:18;14.50;99.90
2054;DHT22;1032;52.542;13.440;2022-10-31T07:32:48;14.60;99.90
2054;DHT22;1032;52.542;13.440;2022-10-31T07:35:18;14.80;99.90
2054;DHT22;1032;52.542;13.440;2022-10-31T07:37:48;14.70;99.90
2054;DHT22;1032;52.542;13.440;2022-10-31T07:40:16;15.20;99.90
2054;DHT22;1032;52.542;13.440;2022-10-31T07:42:44;14.90;99.90
2054;DHT22;1032;52.542;13.440;2022-10-31T07:45:32;15.10;99.90
2054;DHT22;1032;52.542;13.440;2022-10-31T07:48:18;15.00;99.90
2054;DHT22;1032;52.542;13.440;2022-10-31T07:51:04;15.20;99.90
2054;DHT22;1032;52.542;13.440;2022-10-31T07:53:50;15.10;99.90
2054;DHT22;1032;52.542;13.440;2022-10-31T07:56:23;15.00;99.90
2054;DHT22;1032;52.542;13.440;2022-10-31T07:58:50;14.90;99.90
2054;DHT22;1032;52.542;13.440;2022-10-31T08:01:19;15.10;99.90
2054;DHT22;1032;52.542;13.440;2022-10-31T08:04:00;15.10;99.90
2054;DHT22;1032;52.542;13.440;2022-10-31T08:06:45;14.90;99.90
2054;DHT22;1032;52.542;13.440;2022-10-31T08:09:26;14.90;99.90
2054;DHT22;1032;52.542;13.440;2022-10-31T08:11:56;15.00;99.90
2054;DHT22;1032;52.542;13.440;2022-10-31T08:14:23;15.00;99.90
2054;DHT22;1032;52.542;13.440;2022-10-31T08:16:53;14.80;99.90
2054;DHT22;1032;52.542;13.440;2022-10-31T08:19:20;14.40;99.90
2054;DHT22;1032;52.542;13.440;2022-10-31T08:21:50;15.10;99.90
2054;DHT22;1032;52.542;13.440;2022-10-31T08:24:17;14.90;99.90
2054;DHT22;1032;52.542;13.440;2022-10-31T08:26:44;14.40;99.90
2054;DHT22;1032;52.542;13.440;2022-10-31T08:29:11;14.30;99.90
2054;DHT22;1032;52.542;13.440;2022-10-31T08:31:39;15.00;99.90
2054;DHT22;1032;52.542;13.440;2022-10-31T08:34:26;14.80;99.90
2054;DHT22;1032;52.542;13.440;2022-10-31T08:37:11;15.10;99.90
2054;DHT22;1032;52.542;13.440;2022-10-31T08:39:42;14.80;99.90
2054;DHT22;1032;52.542;13.440;2022-10-31T08:42:09;14.80;99.90
2054;DHT22;1032;52.542;13.440;2022-10-31T08:44:37;14.90;99.90
2054;DHT22;1032;52.542;13.440;2022-10-31T08:47:04;14.90;99.90
2054;DHT22;1032;52.542;13.440;2022-10-31T08:49:34;14.70;99.90
2054;DHT22;1032;52.542;13.440;2022-10-31T08:52:02;15.00;99.90
2054;DHT22;1032;52.542;13.440;2022-10-31T08:54:33;14.90;99.90
2054;DHT22;1032;52.542;13.440;2022-10-31T08:57:26;14.90;99.90
2054;DHT22;1032;52.542;13.440;2022-10-31T08:59:53;14.60;99.90
2054;DHT22;1032;52.542;13.440;2022-10-31T09:02:25;14.80;99.90
2054;DHT22;1032;52.542;13.440;2022-10-31T09:04:58;15.00;99.90
2054;DHT22;1032;52.542;13.440;2022-10-31T09:07:24;15.30;99.90
2054;DHT22;1032;52.542;13.440;2022-10-31T09:09:52;15.30;99.90
2054;DHT22;1032;52.542;13.440;2022-10-31T09:12:21;15.20;99.90
2054;DHT22;1032;52.542;13.440;2022-10-31T09:15:24;15.10;99.90
2054;DHT22;1032;52.542;13.440;2022-10-31T09:18:14;15.00;99.90
2054;DHT22;1032;52.542;13.440;2022-10-31T09:20:50;14.70;99.90
2054;DHT22;1032;52.542;13.440;2022-10-31T09:23:18;14.90;99.90
2054;DHT22;1032;52.542;13.440;2022-10-31T09:25:46;15.20;99.90
2054;DHT22;1032;52.542;13.440;2022-10-31T09:28:33;15.00;99.90
2054;DHT22;1032;52.542;13.440;2022-10-31T09:31:06;15.10;99.90
2054;DHT22;1032;52.542;13.440;2022-10-31T09:34:08;14.90;99.90
2054;DHT22;1032;52.542;13.440;2022-10-31T09:36:36;15.10;99.90
2054;DHT22;1032;52.542;13.440;2022-10-31T09:39:04;15.20;99.90
2054;DHT22;1032;52.542;13.440;2022-10-31T09:41:47;15.30;99.90
2054;DHT22;1032;52.542;13.440;2022-10-31T09:44:20;14.90;99.90
2054;DHT22;1032;52.542;13.440;2022-10-31T09:46:55;15.30;99.90
2054;DHT22;1032;52.542;13.440;2022-10-31T09:49:48;15.10;99.90
2054;DHT22;1032;52.542;13.440;2022-10-31T09:52:22;15.10;99.90
2054;DHT22;1032;52.542;13.440;2022-10-31T09:54:53;14.80;99.90
2054;DHT22;1032;52.542;13.440;2022-10-31T09:57:25;15.40;99.90
2054;DHT22;1032;52.542;13.440;2022-10-31T09:59:54;15.40;99.90
2054;DHT22;1032;52.542;13.440;2022-10-31T10:02:28;15.20;99.90
2054;DHT22;1032;52.542;13.440;2022-10-31T10:04:58;15.60;99.90
2054;DHT22;1032;52.542;13.440;2022-10-31T10:07:41;15.00;99.90
2054;DHT22;1032;52.542;13.440;2022-10-31T10:10:37;15.60;99.90
2054;DHT22;1032;52.542;13.440;2022-10-31T10:13:35;15.50;99.90
2054;DHT22;1032;52.542;13.440;2022-10-31T10:16:28;15.90;99.90
2054;DHT22;1032;52.542;13.440;2022-10-31T10:19:07;15.80;99.90
2054;DHT22;1032;52.542;13.440;2022-10-31T10:21:45;15.60;99.90
2054;DHT22;1032;52.542;13.440;2022-10-31T10:24:23;15.80;99.90
2054;DHT22;1032;52.542;13.440;2022-10-31T10:26:59;15.60;99.90
2054;DHT22;1032;52.542;13.440;2022-10-31T10:29:33;15.60;99.90
2054;DHT22;1032;52.542;13.440;2022-10-31T10:32:05;16.40;99.90
2054;DHT22;1032;52.542;13.440;2022-10-31T10:34:41;16.00;99.90
2054;DHT22;1032;52.542;13.440;2022-10-31T10:37:20;15.90;99.90
2054;DHT22;1032;52.542;13.440;2022-10-31T10:39:54;16.40;99.90
2054;DHT22;1032;52.542;13.440;2022-10-31T10:42:23;16.30;99.90
2054;DHT22;1032;52.542;13.440;2022-10-31T10:45:14;16.20;99.90
2054;DHT22;1032;52.542;13.440;2022-10-31T10:48:06;16.20;99.90
2054;DHT22;1032;52.542;13.440;2022-10-31T10:50:42;16.20;99.90
2054;DHT22;1032;52.542;13.440;2022-10-31T10:53:22;16.20;99.90
2054;DHT22;1032;52.542;13.440;2022-10-31T10:56:03;16.30;99.90
2054;DHT22;1032;52.542;13.440;2022-10-31T10:58:35;16.20;99.90
2054;DHT22;1032;52.542;13.440;2022-10-31T11:01:10;16.50;99.90
2054;DHT22;1032;52.542;13.440;2022-10-31T11:03:37;16.00;99.90
2054;DHT22;1032;52.542;13.440;2022-10-31T11:06:04;16.80;99.90
2054;DHT22;1032;52.542;13.440;2022-10-31T11:08:33;16.60;99.90
2054;DHT22;1032;52.542;13.440;2022-10-31T11:11:04;16.30;99.90
2054;DHT22;1032;52.542;13.440;2022-10-31T11:13:33;16.60;99.90
2054;DHT22;1032;52.542;13.440;2022-10-31T11:16:03;16.50;99.90
2054;DHT22;1032;52.542;13.440;2022-10-31T11:18:32;16.40;99.90
2054;DHT22;1032;52.542;13.440;2022-10-31T11:21:02;16.60;99.90
2054;DHT22;1032;52.542;13.440;2022-10-31T11:23:30;16.60;99.90
2054;DHT22;1032;52.542;13.440;2022-10-31T11:25:59;17.10;99.90
2054;DHT22;1032;52.542;13.440;2022-10-31T11:28:29;16.50;99.90
2054;DHT22;1032;52.542;13.440;2022-10-31T11:30:59;16.80;99.90
2054;DHT22;1032;52.542;13.440;2022-10-31T11:33:30;16.10;99.90
2054;DHT22;1032;52.542;13.440;2022-10-31T11:35:59;16.80;99.90
2054;DHT22;1032;52.542;13.440;2022-10-31T11:38:33;17.00;99.90
2054;DHT22;1032;52.542;13.440;2022-10-31T11:41:08;16.80;99.90
2054;DHT22;1032;52.542;13.440;2022-10-31T11:43:38;16.90;99.90
2054;DHT22;1032;52.542;13.440;2022-10-31T11:46:10;16.90;99.90
2054;DHT22;1032;52.542;13.440;2022-10-31T11:48:38;16.60;99.90
2054;DHT22;1032;52.542;13.440;2022-10-31T11:51:04;17.00;99.90
2054;DHT22;1032;52.542;13.440;2022-10-31T11:53:33;16.80;99.90
2054;DHT22;1032;52.542;13.440;2022-10-31T11:56:09;17.10;99.90
2054;DHT22;1032;52.542;13.440;2022-10-31T11:58:37;17.10;99.90
2054;DHT22;1032;52.542;13.440;2022-10-31T12:01:04;17.10;99.90
2054;DHT22;1032;52.542;13.440;2022-10-31T12:03:45;17.10;99.90
2054;DHT22;1032;52.542;13.440;2022-10-31T12:06:18;17.10;99.90
2054;DHT22;1032;52.542;13.440;2022-10-31T12:08:47;17.10;99.90
2054;DHT22;1032;52.542;13.440;2022-10-31T12:11:30;17.20;99.90
2054;DHT22;1032;52.542;13.440;2022-10-31T12:14:08;17.10;99.90
2054;DHT22;1032;52.542;13.440;2022-10-31T12:16:45;17.40;99.90
2054;DHT22;1032;52.542;13.440;2022-10-31T12:19:17;17.10;99.90
2054;DHT22;1032;52.542;13.440;2022-10-31T12:21:59;17.10;99.90
2054;DHT22;1032;52.542;13.440;2022-10-31T12:24:48;17.20;99.90
2054;DHT22;1032;52.542;13.440;2022-10-31T12:27:25;17.50;99.90
2054;DHT22;1032;52.542;13.440;2022-10-31T12:30:08;17.20;99.90
2054;DHT22;1032;52.542;13.440;2022-10-31T12:32:43;16.80;99.90
2054;DHT22;1032;52.542;13.440;2022-10-31T12:35:25;17.30;99.90
2054;DHT22;1032;52.542;13.440;2022-10-31T12:38:03;17.00;99.90
2054;DHT22;1032;52.542;13.440;2022-10-31T12:40:43;17.30;99.90
2054;DHT22;1032;52.542;13.440;2022-10-31T12:43:24;17.60;99.90
2054;DHT22;1032;52.542;13.440;2022-10-31T12:45:55;17.40;99.90
2054;DHT22;1032;52.542;13.440;2022-10-31T12:48:53;17.30;99.90
2054;DHT22;1032;52.542;13.440;2022-10-31T12:51:29;17.60;99.90
2054;DHT22;1032;52.542;13.440;2022-10-31T12:57:01;17.50;99.90
2054;DHT22;1032;52.542;13.440;2022-10-31T12:59:33;17.40;99.90
2054;DHT22;1032;52.542;13.440;2022-10-31T13:02:10;17.60;99.90
2054;DHT22;1032;52.542;13.440;2022-10-31T13:04:43;17.70;99.90
2054;DHT22;1032;52.542;13.440;2022-10-31T13:07:14;17.30;99.90
2054;DHT22;1032;52.542;13.440;2022-10-31T13:09:47;17.30;99.90
2054;DHT22;1032;52.542;13.440;2022-10-31T13:12:18;17.60;99.90
2054;DHT22;1032;52.542;13.440;2022-10-31T13:14:49;17.70;99.90
2054;DHT22;1032;52.542;13.440;2022-10-31T13:17:24;17.60;99.90
2054;DHT22;1032;52.542;13.440;2022-10-31T13:19:57;17.70;99.90
2054;DHT22;1032;52.542;13.440;2022-10-31T13:22:28;17.70;99.90
2054;DHT22;1032;52.542;13.440;2022-10-31T13:24:59;17.40;99.90
2054;DHT22;1032;52.542;13.440;2022-10-31T13:27:30;17.70;99.90
2054;DHT22;1032;52.542;13.440;2022-10-31T13:30:03;18.00;99.90
2054;DHT22;1032;52.542;13.440;2022-10-31T13:32:40;17.80;99.90
2054;DHT22;1032;52.542;13.440;2022-10-31T13:35:13;18.10;99.90
2054;DHT22;1032;52.542;13.440;2022-10-31T13:37:44;17.60;99.90
2054;DHT22;1032;52.542;13.440;2022-10-31T13:40:19;17.50;99.90
2054;DHT22;1032;52.542;13.440;2022-10-31T13:42:54;18.10;99.90
2054;DHT22;1032;52.542;13.440;2022-10-31T13:45:23;17.60;99.90
2054;DHT22;1032;52.542;13.440;2022-10-31T13:47:59;17.70;99.90
2054;DHT22;1032;52.542;13.440;2022-10-31T13:50:27;17.50;99.90
2054;DHT22;1032;52.542;13.440;2022-10-31T13:53:10;17.90;99.90
2054;DHT22;1032;52.542;13.440;2022-10-31T13:55:40;17.90;99.90
2054;DHT22;1032;52.542;13.440;2022-10-31T13:58:22;17.70;99.90
2054;DHT22;1032;52.542;13.440;2022-10-31T14:00:59;17.50;99.90
2054;DHT22;1032;52.542;13.440;2022-10-31T14:03:30;17.80;99.90
2054;DHT22;1032;52.542;13.440;2022-10-31T14:05:59;17.90;99.90
2054;DHT22;1032;52.542;13.440;2022-10-31T14:08:26;17.40;99.90
2054;DHT22;1032;52.542;13.440;2022-10-31T14:10:54;17.80;99.90
2054;DHT22;1032;52.542;13.440;2022-10-31T14:13:24;17.70;99.90
2054;DHT22;1032;52.542;13.440;2022-10-31T14:15:56;17.70;99.90
2054;DHT22;1032;52.542;13.440;2022-10-31T14:18:31;17.50;99.90
2054;DHT22;1032;52.542;13.440;2022-10-31T14:20:58;17.70;99.90
2054;DHT22;1032;52.542;13.440;2022-10-31T14:23:37;17.70;99.90
2054;DHT22;1032;52.542;13.440;2022-10-31T14:26:29;17.60;99.90
2054;DHT22;1032;52.542;13.440;2022-10-31T14:28:57;17.60;99.90
2054;DHT22;1032;52.542;13.440;2022-10-31T14:31:30;17.50;99.90
2054;DHT22;1032;52.542;13.440;2022-10-31T14:34:01;17.60;99.90
2054;DHT22;1032;52.542;13.440;2022-10-31T14:36:37;17.60;99.90
2054;DHT22;1032;52.542;13.440;2022-10-31T14:39:11;17.10;99.90
2054;DHT22;1032;52.542;13.440;2022-10-31T14:41:52;17.30;99.90
2054;DHT22;1032;52.542;13.440;2022-10-31T14:44:44;17.30;99.90
2054;DHT22;1032;52.542;13.440;2022-10-31T14:47:22;17.40;99.90
2054;DHT22;1032;52.542;13.440;2022-10-31T14:50:17;17.60;99.90
2054;DHT22;1032;52.542;13.440;2022-10-31T14:52:50;17.20;99.90
2054;DHT22;1032;52.542;13.440;2022-10-31T14:55:18;17.50;99.90
2054;DHT22;1032;52.542;13.440;2022-10-31T14:57:49;17.00;99.90
2054;DHT22;1032;52.542;13.440;2022-10-31T15:00:17;17.50;99.90
2054;DHT22;1032;52.542;13.440;2022-10-31T15:02:52;17.10;99.90
2054;DHT22;1032;52.542;13.440;2022-10-31T15:05:26;17.50;99.90
2054;DHT22;1032;52.542;13.440;2022-10-31T15:07:53;17.20;99.90
2054;DHT22;1032;52.542;13.440;2022-10-31T15:10:23;16.90;99.90
2054;DHT22;1032;52.542;13.440;2022-10-31T15:12:51;16.90;99.90
2054;DHT22;1032;52.542;13.440;2022-10-31T15:15:20;16.30;99.90
2054;DHT22;1032;52.542;13.440;2022-10-31T15:17:49;16.80;99.90
2054;DHT22;1032;52.542;13.440;2022-10-31T15:20:19;17.10;99.90
2054;DHT22;1032;52.542;13.440;2022-10-31T15:22:48;16.50;99.90
2054;DHT22;1032;52.542;13.440;2022-10-31T15:25:18;17.00;99.90
2054;DHT22;1032;52.542;13.440;2022-10-31T15:27:46;16.40;99.90
2054;DHT22;1032;52.542;13.440;2022-10-31T15:30:18;16.80;99.90
2054;DHT22;1032;52.542;13.440;2022-10-31T15:32:45;16.60;99.90
2054;DHT22;1032;52.542;13.440;2022-10-31T15:35:20;16.50;99.90
2054;DHT22;1032;52.542;13.440;2022-10-31T15:37:49;16.40;99.90
2054;DHT22;1032;52.542;13.440;2022-10-31T15:40:17;16.50;99.90
2054;DHT22;1032;52.542;13.440;2022-10-31T15:42:46;16.10;99.90
2054;DHT22;1032;52.542;13.440;2022-10-31T15:45:20;16.30;99.90
2054;DHT22;1032;52.542;13.440;2022-10-31T15:47:54;16.10;99.90
2054;DHT22;1032;52.542;13.440;2022-10-31T15:50:25;16.30;99.90
2054;DHT22;1032;52.542;13.440;2022-10-31T15:52:55;16.30;99.90
2054;DHT22;1032;52.542;13.440;2022-10-31T15:55:24;16.10;99.90
2054;DHT22;1032;52.542;13.440;2022-10-31T15:57:56;15.60;99.90
2054;DHT22;1032;52.542;13.440;2022-10-31T16:00:25;16.10;99.90
2054;DHT22;1032;52.542;13.440;2022-10-31T16:03:06;16.20;99.90
2054;DHT22;1032;52.542;13.440;2022-10-31T16:05:37;16.30;99.90
2054;DHT22;1032;52.542;13.440;2022-10-31T16:08:24;15.90;99.90
2054;DHT22;1032;52.542;13.440;2022-10-31T16:10:52;16.00;99.90
2054;DHT22;1032;52.542;13.440;2022-10-31T16:13:21;15.50;99.90
2054;DHT22;1032;52.542;13.440;2022-10-31T16:15:52;15.80;99.90
2054;DHT22;1032;52.542;13.440;2022-10-31T16:18:20;15.60;99.90
2054;DHT22;1032;52.542;13.440;2022-10-31T16:24:43;15.70;99.90
2054;DHT22;1032;52.542;13.440;2022-10-31T16:27:17;16.00;99.90
2054;DHT22;1032;52.542;13.440;2022-10-31T16:29:46;15.60;99.90
2054;DHT22;1032;52.542;13.440;2022-10-31T16:32:28;15.80;99.90